createdAt,value
2018-05-24T00:01:12.877Z,17.11
2018-05-24T00:03:41.560Z,17.04
2018-05-24T00:06:10.242Z,16.96
2018-05-24T00:08:39.030Z,16.90
2018-05-24T00:11:07.918Z,16.89
2018-05-24T00:13:36.500Z,16.86
2018-05-24T00:16:05.103Z,16.83
2018-05-24T00:18:33.763Z,16.81
2018-05-24T00:21:02.558Z,16.81
2018-05-24T00:23:31.169Z,16.78
2018-05-24T00:25:59.823Z,16.74
2018-05-24T00:28:28.583Z,16.80
2018-05-24T00:30:57.403Z,16.80
2018-05-24T00:33:26.186Z,16.87
2018-05-24T00:35:54.870Z,16.90
2018-05-24T00:38:24.849Z,16.89
2018-05-24T00:40:53.474Z,16.82
2018-05-24T00:43:22.156Z,16.85
2018-05-24T00:45:50.841Z,16.89
2018-05-24T00:48:20.140Z,16.92
2018-05-24T00:50:49.476Z,16.95
2018-05-24T00:53:18.197Z,17.01
2018-05-24T00:55:47.013Z,16.99
2018-05-24T00:58:15.704Z,17.03
2018-05-24T01:00:46.174Z,16.86
2018-05-24T01:03:14.736Z,16.79
2018-05-24T01:05:43.467Z,16.87
2018-05-24T01:08:12.075Z,16.84
2018-05-24T01:10:41.656Z,16.76
2018-05-24T01:13:10.269Z,16.75
2018-05-24T01:15:39.053Z,16.70
2018-05-24T01:18:07.850Z,16.61
2018-05-24T01:20:39.809Z,16.56
2018-05-24T01:23:08.590Z,16.53
2018-05-24T01:25:37.393Z,16.55
2018-05-24T01:28:20.949Z,16.50
2018-05-24T01:30:49.727Z,16.51
2018-05-24T01:33:18.411Z,16.53
2018-05-24T01:35:47.198Z,16.45
2018-05-24T01:38:15.889Z,16.52
2018-05-24T01:40:44.667Z,16.50
2018-05-24T01:43:13.458Z,16.52
2018-05-24T01:45:42.162Z,16.53
2018-05-24T01:48:10.827Z,16.42
2018-05-24T01:50:39.616Z,16.42
2018-05-24T01:53:08.299Z,16.40
2018-05-24T01:55:36.964Z,16.36
2018-05-24T01:58:05.673Z,16.35
2018-05-24T02:00:34.350Z,16.40
2018-05-24T02:03:03.048Z,16.36
2018-05-24T02:05:31.726Z,16.40
2018-05-24T02:08:00.422Z,16.38
2018-05-24T02:10:29.201Z,16.47
2018-05-24T02:12:57.836Z,16.47
2018-05-24T02:15:26.569Z,16.49
2018-05-24T02:17:55.356Z,16.56
2018-05-24T02:20:24.050Z,16.50
2018-05-24T02:22:52.829Z,16.44
2018-05-24T02:25:21.616Z,16.37
2018-05-24T02:27:50.404Z,16.28
2018-05-24T02:30:19.131Z,16.36
2018-05-24T02:32:48.321Z,16.34
2018-05-24T02:35:17.076Z,16.35
2018-05-24T02:37:45.968Z,16.41
2018-05-24T02:40:14.800Z,16.44
2018-05-24T02:42:43.541Z,16.45
2018-05-24T02:45:12.325Z,16.47
2018-05-24T02:47:41.014Z,16.43
2018-05-24T02:50:09.712Z,16.48
2018-05-24T02:52:38.303Z,16.44
2018-05-24T02:55:06.980Z,16.47
2018-05-24T02:57:35.589Z,16.49
2018-05-24T03:00:05.378Z,16.48
2018-05-24T03:02:34.151Z,16.56
2018-05-24T03:05:02.831Z,16.60
2018-05-24T03:07:31.618Z,16.58
2018-05-24T03:10:00.375Z,16.59
2018-05-24T03:12:29.095Z,16.60
2018-05-24T03:14:57.877Z,16.67
2018-05-24T03:17:26.567Z,16.70
2018-05-24T03:19:55.318Z,16.68
2018-05-24T03:22:24.137Z,16.62
2018-05-24T03:24:52.826Z,16.71
2018-05-24T03:27:21.506Z,16.53
2018-05-24T03:29:50.105Z,16.63
2018-05-24T03:32:18.972Z,16.48
2018-05-24T03:34:47.669Z,16.46
2018-05-24T03:37:16.452Z,16.40
2018-05-24T03:39:45.103Z,16.37
2018-05-24T03:42:13.771Z,16.32
2018-05-24T03:44:42.404Z,16.29
2018-05-24T03:47:11.094Z,16.30
2018-05-24T03:49:39.846Z,16.30
2018-05-24T03:52:08.678Z,16.27
2018-05-24T03:54:37.610Z,16.30
2018-05-24T03:57:06.444Z,16.32
2018-05-24T04:02:59.214Z,16.26
2018-05-24T04:05:28.105Z,16.20
2018-05-24T04:07:56.820Z,16.17
2018-05-24T04:10:25.607Z,16.16
2018-05-24T04:12:54.371Z,16.16
2018-05-24T04:15:23.150Z,16.03
2018-05-24T04:17:51.939Z,16.00
2018-05-24T04:20:20.728Z,16.02
2018-05-24T04:22:49.309Z,16.01
2018-05-24T04:25:18.183Z,16.04
2018-05-24T04:27:46.813Z,16.01
2018-05-24T04:30:15.569Z,16.03
2018-05-24T04:32:44.357Z,15.95
2018-05-24T04:35:13.142Z,15.95
2018-05-24T04:37:41.865Z,16.01
2018-05-24T04:40:10.614Z,16.02
2018-05-24T04:42:39.476Z,16.02
2018-05-24T04:45:08.189Z,15.94
2018-05-24T04:47:36.920Z,15.97
2018-05-24T04:50:05.736Z,16.02
2018-05-24T04:52:34.449Z,16.08
2018-05-24T04:55:03.090Z,16.05
2018-05-24T04:57:31.821Z,16.11
2018-05-24T05:00:00.611Z,16.14
2018-05-24T05:02:29.258Z,16.20
2018-05-24T05:04:58.388Z,16.28
2018-05-24T05:07:27.178Z,16.42
2018-05-24T05:09:56.009Z,16.54
2018-05-24T05:12:24.708Z,16.69
2018-05-24T05:14:53.335Z,16.76
2018-05-24T05:17:22.563Z,16.78
2018-05-24T05:19:51.289Z,16.78
2018-05-24T05:22:19.923Z,16.84
2018-05-24T05:24:48.474Z,16.81
2018-05-24T05:27:17.269Z,16.94
2018-05-24T05:29:45.957Z,16.80
2018-05-24T05:32:14.643Z,16.85
2018-05-24T05:34:43.439Z,16.77
2018-05-24T05:37:12.113Z,16.75
2018-05-24T05:39:40.901Z,16.84
2018-05-24T05:42:10.304Z,16.99
2018-05-24T05:44:38.932Z,17.06
2018-05-24T05:47:07.562Z,17.09
2018-05-24T05:49:36.357Z,17.21
2018-05-24T05:52:04.975Z,17.28
2018-05-24T05:54:33.577Z,17.35
2018-05-24T05:57:02.204Z,17.41
2018-05-24T05:59:31.055Z,17.38
2018-05-24T06:02:00.131Z,17.53
2018-05-24T06:04:28.680Z,17.66
2018-05-24T06:06:57.459Z,17.51
2018-05-24T06:09:26.044Z,17.49
2018-05-24T06:11:54.833Z,17.62
2018-05-24T06:14:23.615Z,17.55
2018-05-24T06:16:52.403Z,17.52
2018-05-24T06:19:21.672Z,17.52
2018-05-24T06:21:50.605Z,17.59
2018-05-24T06:24:19.250Z,17.46
2018-05-24T06:26:47.964Z,17.48
2018-05-24T06:29:16.755Z,17.58
2018-05-24T06:31:45.996Z,17.55
2018-05-24T06:34:14.734Z,17.46
2018-05-24T06:36:43.522Z,17.46
2018-05-24T06:39:12.975Z,17.54
2018-05-24T06:41:41.708Z,17.49
2018-05-24T06:44:11.004Z,17.50
2018-05-24T06:46:39.708Z,17.72
2018-05-24T06:49:08.483Z,18.04
2018-05-24T06:51:37.269Z,18.14
2018-05-24T06:54:05.994Z,18.42
2018-05-24T06:56:34.644Z,18.74
2018-05-24T06:59:03.428Z,19.11
2018-05-24T07:01:32.318Z,19.31
2018-05-24T07:04:01.463Z,19.56
2018-05-24T07:06:30.203Z,20.11
2018-05-24T07:08:58.849Z,20.40
2018-05-24T07:11:27.671Z,20.47
2018-05-24T07:13:56.459Z,20.71
2018-05-24T07:16:25.081Z,20.84
2018-05-24T07:18:53.706Z,20.93
2018-05-24T07:21:22.387Z,20.74
2018-05-24T07:23:51.627Z,21.04
2018-05-24T07:26:20.398Z,20.88
2018-05-24T07:28:49.085Z,20.81
2018-05-24T07:31:17.905Z,20.83
2018-05-24T07:33:46.761Z,21.06
2018-05-24T07:36:15.442Z,21.03
2018-05-24T07:38:44.233Z,21.35
2018-05-24T07:41:13.023Z,22.07
2018-05-24T07:43:41.813Z,23.31
2018-05-24T07:46:10.702Z,23.88
2018-05-24T07:48:39.484Z,24.72
2018-05-24T07:51:08.274Z,25.52
2018-05-24T07:53:37.559Z,25.21
2018-05-24T07:56:06.769Z,26.92
2018-05-24T07:58:35.455Z,28.68
2018-05-24T08:01:04.309Z,29.58
2018-05-24T08:03:32.985Z,29.95
2018-05-24T08:06:01.616Z,30.48
2018-05-24T08:08:30.597Z,30.49
2018-05-24T08:10:59.390Z,30.98
2018-05-24T08:13:28.177Z,30.79
2018-05-24T08:15:57.071Z,31.28
2018-05-24T08:18:25.750Z,31.55
2018-05-24T08:20:54.743Z,32.09
2018-05-24T08:23:23.509Z,32.68
2018-05-24T08:25:52.628Z,32.57
2018-05-24T08:28:21.413Z,32.36
2018-05-24T08:30:50.308Z,32.30
2018-05-24T08:33:19.001Z,32.15
2018-05-24T08:35:47.623Z,32.98
2018-05-24T08:38:16.463Z,31.76
2018-05-24T08:40:45.579Z,31.85
2018-05-24T08:43:14.445Z,31.64
2018-05-24T08:45:43.705Z,31.50
2018-05-24T08:48:12.533Z,31.39
2018-05-24T08:50:41.203Z,32.03
2018-05-24T08:53:10.004Z,32.86
2018-05-24T08:55:38.697Z,33.57
2018-05-24T08:58:07.476Z,33.38
2018-05-24T09:00:36.164Z,31.73
2018-05-24T09:03:04.956Z,30.99
2018-05-24T09:05:33.737Z,32.15
2018-05-24T09:08:03.345Z,30.84
2018-05-24T09:10:32.133Z,30.55
2018-05-24T09:13:00.928Z,30.96
2018-05-24T09:15:29.915Z,30.09
2018-05-24T09:17:58.663Z,30.83
2018-05-24T09:20:27.378Z,29.91
2018-05-24T09:22:55.969Z,31.07
2018-05-24T09:25:24.808Z,29.82
2018-05-24T09:27:53.548Z,31.97
2018-05-24T09:30:22.397Z,31.61
2018-05-24T09:32:51.011Z,31.55
2018-05-24T09:35:19.801Z,31.11
2018-05-24T09:37:48.488Z,31.61
2018-05-24T09:40:17.275Z,30.14
2018-05-24T09:42:46.179Z,29.86
2018-05-24T09:45:17.204Z,31.17
2018-05-24T09:47:45.926Z,29.64
2018-05-24T09:50:14.573Z,29.27
2018-05-24T09:52:43.322Z,29.72
2018-05-24T09:55:12.184Z,29.75
2018-05-24T09:57:40.898Z,29.39
2018-05-24T10:00:09.688Z,29.33
2018-05-24T10:02:38.471Z,28.98
2018-05-24T10:05:07.260Z,28.37
2018-05-24T10:07:35.945Z,28.64
2018-05-24T10:10:04.628Z,29.35
2018-05-24T10:12:34.246Z,29.70
2018-05-24T10:15:03.044Z,30.25
2018-05-24T10:17:31.809Z,29.98
2018-05-24T10:20:00.597Z,30.85
2018-05-24T10:22:29.282Z,31.48
2018-05-24T10:24:57.967Z,31.17
2018-05-24T10:27:26.576Z,29.91
2018-05-24T10:29:56.978Z,30.95
2018-05-24T10:32:26.271Z,32.43
2018-05-24T10:34:54.941Z,31.55
2018-05-24T10:37:23.574Z,30.92
2018-05-24T10:39:52.496Z,30.65
2018-05-24T10:42:21.218Z,30.71
2018-05-24T10:44:50.004Z,31.01
2018-05-24T10:47:18.694Z,31.47
2018-05-24T10:49:47.612Z,30.81
2018-05-24T10:52:16.399Z,31.80
2018-05-24T10:54:45.186Z,31.60
2018-05-24T10:57:13.805Z,32.02
2018-05-24T10:59:43.332Z,31.59
2018-05-24T11:02:12.165Z,31.55
2018-05-24T11:04:41.417Z,31.24
2018-05-24T11:07:10.159Z,32.90
2018-05-24T11:09:38.937Z,33.92
2018-05-24T11:12:07.518Z,32.94
2018-05-24T11:14:36.307Z,32.17
2018-05-24T11:17:04.999Z,30.89
2018-05-24T11:19:33.663Z,31.72
2018-05-24T11:22:02.464Z,33.26
2018-05-24T11:24:31.149Z,33.16
2018-05-24T11:27:00.037Z,30.94
2018-05-24T11:29:28.827Z,29.94
2018-05-24T11:31:57.574Z,28.95
2018-05-24T11:34:26.420Z,28.30
2018-05-24T11:36:55.075Z,27.50
2018-05-24T11:39:24.310Z,27.57
2018-05-24T11:41:54.222Z,27.63
2018-05-24T11:44:22.921Z,27.43
2018-05-24T11:46:52.386Z,27.75
2018-05-24T11:49:22.093Z,27.69
2018-05-24T11:51:50.707Z,27.31
2018-05-24T11:54:20.078Z,26.72
2018-05-24T11:56:48.833Z,26.95
2018-05-24T11:59:17.553Z,27.31
2018-05-24T12:01:46.349Z,27.66
2018-05-24T12:04:16.970Z,27.55
2018-05-24T12:06:45.647Z,27.58
2018-05-24T12:09:14.337Z,27.65
2018-05-24T12:11:43.125Z,27.88
2018-05-24T12:14:11.812Z,27.74
2018-05-24T12:16:41.194Z,28.02
2018-05-24T12:19:10.000Z,28.33
2018-05-24T12:21:38.724Z,28.43
2018-05-24T12:24:07.444Z,28.25
2018-05-24T12:26:36.061Z,27.83
2018-05-24T12:29:05.583Z,27.49
2018-05-24T12:31:34.351Z,27.52
2018-05-24T12:34:03.029Z,27.46
2018-05-24T12:36:31.616Z,27.49
2018-05-24T12:39:00.404Z,27.52
2018-05-24T12:41:29.924Z,27.10
2018-05-24T12:43:58.585Z,27.01
2018-05-24T12:46:27.193Z,26.55
2018-05-24T12:48:56.033Z,26.12
2018-05-24T12:51:24.563Z,25.48
2018-05-24T12:53:53.539Z,24.82
2018-05-24T12:56:22.323Z,24.51
2018-05-24T12:58:50.833Z,24.37
2018-05-24T13:01:19.417Z,24.22
2018-05-24T13:03:48.067Z,24.04
2018-05-24T13:06:16.904Z,23.96
2018-05-24T13:08:45.772Z,23.85
2018-05-24T13:11:14.502Z,23.36
2018-05-24T13:13:43.029Z,22.63
2018-05-24T13:16:11.701Z,21.77
2018-05-24T13:18:40.489Z,21.14
2018-05-24T13:21:09.174Z,20.82
2018-05-24T13:23:37.865Z,20.74
2018-05-24T13:26:06.647Z,20.60
2018-05-24T13:28:35.161Z,20.58
2018-05-24T13:31:04.017Z,20.40
2018-05-24T13:33:32.836Z,19.94
2018-05-24T13:36:01.492Z,19.52
2018-05-24T13:38:30.275Z,19.49
2018-05-24T13:40:58.961Z,19.65
2018-05-24T13:43:27.544Z,19.70
2018-05-24T13:45:56.235Z,19.65
2018-05-24T13:48:25.017Z,19.65
2018-05-24T13:50:53.706Z,19.65
2018-05-24T13:53:22.505Z,19.72
2018-05-24T13:55:51.071Z,19.77
2018-05-24T13:58:19.757Z,19.87
2018-05-24T14:00:48.507Z,20.06
2018-05-24T14:03:17.241Z,20.22
2018-05-24T14:05:46.090Z,20.44
2018-05-24T14:08:14.852Z,20.63
2018-05-24T14:10:43.419Z,20.82
2018-05-24T14:13:13.090Z,20.88
2018-05-24T14:15:41.786Z,20.91
2018-05-24T14:18:10.527Z,21.04
2018-05-24T14:20:39.217Z,21.07
2018-05-24T14:23:08.027Z,21.30
2018-05-24T14:25:36.724Z,21.52
2018-05-24T14:28:05.408Z,21.69
2018-05-24T14:30:34.044Z,21.88
2018-05-24T14:33:02.757Z,22.04
2018-05-24T14:35:31.272Z,22.19
2018-05-24T14:38:00.047Z,22.24
2018-05-24T14:40:28.733Z,22.44
2018-05-24T14:42:57.520Z,22.36
2018-05-24T14:45:26.426Z,22.57
2018-05-24T14:47:58.598Z,22.32
2018-05-24T14:50:27.259Z,22.24
2018-05-24T14:52:55.951Z,22.49
2018-05-24T14:55:24.466Z,22.48
2018-05-24T14:57:53.215Z,22.52
2018-05-24T15:00:22.520Z,22.59
2018-05-24T15:02:51.304Z,22.72
2018-05-24T15:05:19.987Z,22.76
2018-05-24T15:07:48.678Z,22.99
2018-05-24T15:10:17.376Z,23.02
2018-05-24T15:12:46.045Z,22.83
2018-05-24T15:15:14.830Z,22.97
2018-05-24T15:17:43.533Z,23.08
2018-05-24T15:20:12.304Z,23.09
2018-05-24T15:22:40.889Z,22.96
2018-05-24T15:25:09.676Z,23.09
2018-05-24T15:27:38.228Z,23.11
2018-05-24T15:30:06.987Z,23.04
2018-05-24T15:32:35.726Z,23.03
2018-05-24T15:35:04.410Z,23.13
2018-05-24T15:37:32.917Z,23.00
2018-05-24T15:40:01.479Z,22.99
2018-05-24T15:42:30.265Z,22.95
2018-05-24T15:44:59.435Z,23.07
2018-05-24T15:47:27.991Z,23.02
2018-05-24T15:49:56.627Z,23.05
2018-05-24T15:52:25.270Z,22.97
2018-05-24T15:54:54.008Z,22.84
2018-05-24T15:57:22.744Z,22.92
2018-05-24T15:59:51.469Z,22.89
2018-05-24T16:02:20.103Z,22.95
2018-05-24T16:04:48.838Z,23.00
2018-05-24T16:07:17.624Z,23.11
2018-05-24T16:09:46.308Z,23.19
2018-05-24T16:12:15.103Z,23.20
2018-05-24T16:14:43.801Z,23.12
2018-05-24T16:17:12.470Z,23.19
2018-05-24T16:19:41.349Z,23.17
2018-05-24T16:22:09.941Z,23.25
2018-05-24T16:24:38.729Z,23.10
2018-05-24T16:27:07.514Z,23.17
2018-05-24T16:29:36.303Z,23.25
2018-05-24T16:32:05.727Z,23.32
2018-05-24T16:34:34.357Z,23.29
2018-05-24T16:37:03.250Z,23.20
2018-05-24T16:39:32.111Z,23.24
2018-05-24T16:42:00.854Z,23.29
2018-05-24T16:44:29.549Z,23.48
2018-05-24T16:46:58.222Z,23.65
2018-05-24T16:49:26.815Z,23.50
2018-05-24T16:55:27.160Z,23.39
2018-05-24T16:57:55.845Z,23.41
2018-05-24T17:00:25.030Z,23.19
2018-05-24T17:02:53.628Z,23.16
2018-05-24T17:05:22.304Z,23.16
2018-05-24T17:07:51.095Z,23.00
2018-05-24T17:10:19.744Z,23.12
2018-05-24T17:12:48.479Z,22.99
2018-05-24T17:15:17.656Z,22.84
2018-05-24T17:17:46.342Z,22.69
2018-05-24T17:20:14.855Z,22.61
2018-05-24T17:22:43.575Z,22.45
2018-05-24T17:25:12.191Z,22.18
2018-05-24T17:27:40.779Z,22.08
2018-05-24T17:30:09.673Z,21.99
2018-05-24T17:32:38.350Z,21.84
2018-05-24T17:35:07.068Z,21.75
2018-05-24T17:37:35.619Z,21.62
2018-05-24T17:40:04.202Z,21.44
2018-05-24T17:42:32.989Z,21.47
2018-05-24T17:45:01.675Z,21.23
2018-05-24T17:47:30.462Z,21.24
2018-05-24T17:49:59.248Z,21.17
2018-05-24T17:52:27.832Z,21.13
2018-05-24T17:54:56.574Z,21.07
2018-05-24T17:57:25.233Z,21.03
2018-05-24T17:59:53.987Z,20.96
2018-05-24T18:02:22.671Z,20.81
2018-05-24T18:04:55.808Z,20.76
2018-05-24T18:07:26.818Z,20.68
2018-05-24T18:09:55.595Z,20.65
2018-05-24T18:12:24.239Z,20.50
2018-05-24T18:14:52.969Z,20.47
2018-05-24T18:17:21.642Z,20.44
2018-05-24T18:19:50.329Z,20.35
2018-05-24T18:22:19.016Z,20.26
2018-05-24T18:24:47.754Z,20.09
2018-05-24T18:27:16.325Z,20.11
2018-05-24T18:29:45.685Z,20.06
2018-05-24T18:32:14.898Z,20.05
2018-05-24T18:34:43.626Z,20.00
2018-05-24T18:37:12.353Z,20.01
2018-05-24T18:39:41.042Z,19.96
2018-05-24T18:42:09.722Z,19.94
2018-05-24T18:44:38.307Z,19.87
2018-05-24T18:47:06.954Z,19.81
2018-05-24T18:49:35.580Z,19.72
2018-05-24T18:52:04.157Z,19.72
2018-05-24T18:54:32.840Z,19.59
2018-05-24T18:57:02.241Z,19.51
2018-05-24T18:59:30.827Z,19.42
2018-05-24T19:01:59.639Z,19.37
2018-05-24T19:04:28.207Z,19.29
2018-05-24T19:06:56.986Z,19.27
2018-05-24T19:09:25.668Z,19.25
2018-05-24T19:11:54.467Z,19.20
2018-05-24T19:14:23.684Z,19.14
2018-05-24T19:16:52.544Z,19.12
2018-05-24T19:19:21.226Z,19.06
2018-05-24T19:21:49.921Z,18.92
2018-05-24T19:24:18.502Z,18.93
2018-05-24T19:26:47.178Z,18.93
2018-05-24T19:29:16.443Z,18.88
2018-05-24T19:31:45.986Z,18.77
2018-05-24T19:34:18.217Z,18.80
2018-05-24T19:36:48.268Z,18.79
2018-05-24T19:39:17.587Z,18.70
2018-05-24T19:41:46.281Z,18.70
2018-05-24T19:44:15.143Z,18.70
2018-05-24T19:46:43.929Z,18.53
2018-05-24T19:49:12.821Z,18.55
2018-05-24T19:51:41.611Z,18.56
2018-05-24T19:54:10.300Z,18.49
2018-05-24T19:56:38.951Z,18.47
2018-05-24T19:59:07.663Z,18.40
2018-05-24T20:01:36.194Z,18.38
2018-05-24T20:04:04.843Z,18.29
2018-05-24T20:06:33.596Z,18.44
2018-05-24T20:09:02.202Z,18.51
2018-05-24T20:11:30.888Z,18.46
2018-05-24T20:13:59.392Z,18.38
2018-05-24T20:16:27.933Z,18.28
2018-05-24T20:18:56.577Z,18.29
2018-05-24T20:21:25.214Z,18.29
2018-05-24T20:23:54.031Z,18.25
2018-05-24T20:26:22.787Z,18.16
2018-05-24T20:28:52.469Z,18.12
2018-05-24T20:31:21.654Z,18.26
2018-05-24T20:33:50.286Z,18.23
2018-05-24T20:36:19.066Z,18.23
2018-05-24T20:38:48.669Z,18.15
2018-05-24T20:41:17.969Z,18.06
2018-05-24T20:43:46.655Z,17.97
2018-05-24T20:46:16.670Z,17.92
2018-05-24T20:48:45.480Z,17.86
2018-05-24T20:51:15.376Z,17.87
2018-05-24T20:53:44.157Z,17.85
2018-05-24T20:56:12.853Z,17.85
2018-05-24T20:58:41.597Z,17.76
2018-05-24T21:01:10.260Z,17.80
2018-05-24T21:03:39.000Z,17.71
2018-05-24T21:06:07.791Z,17.60
2018-05-24T21:08:36.935Z,17.57
2018-05-24T21:11:05.560Z,17.50
2018-05-24T21:13:34.355Z,17.50
2018-05-24T21:16:03.053Z,17.41
2018-05-24T21:18:32.649Z,17.40
2018-05-24T21:21:01.435Z,17.35
2018-05-24T21:23:30.122Z,17.29
2018-05-24T21:25:58.809Z,17.24
2018-05-24T21:28:28.121Z,17.27
2018-05-24T21:30:56.688Z,17.25
2018-05-24T21:33:25.792Z,17.28
2018-05-24T21:35:54.428Z,17.33
2018-05-24T21:38:23.055Z,17.26
2018-05-24T21:40:51.615Z,17.19
2018-05-24T21:43:20.316Z,17.12
2018-05-24T21:45:48.918Z,17.00
2018-05-24T21:48:17.693Z,17.01
2018-05-24T21:50:47.199Z,17.01
2018-05-24T21:53:15.881Z,16.95
2018-05-24T21:55:44.667Z,16.89
2018-05-24T21:58:13.350Z,16.93
2018-05-24T22:00:47.767Z,16.92
2018-05-24T22:03:16.660Z,16.92
2018-05-24T22:05:45.473Z,16.88
2018-05-24T22:08:14.235Z,16.90
2018-05-24T22:10:43.131Z,16.81
2018-05-24T22:13:13.525Z,16.74
2018-05-24T22:15:42.417Z,16.78
2018-05-24T22:18:11.024Z,16.70
2018-05-24T22:20:39.700Z,16.66
2018-05-24T22:23:08.446Z,16.55
2018-05-24T22:25:37.284Z,16.47
2018-05-24T22:28:05.968Z,16.49
2018-05-24T22:30:34.494Z,16.49
2018-05-24T22:33:03.235Z,16.40
2018-05-24T22:35:32.020Z,16.40
2018-05-24T22:38:00.615Z,16.40
2018-05-24T22:40:29.389Z,16.33
2018-05-24T22:42:58.087Z,16.21
2018-05-24T22:45:26.869Z,16.15
2018-05-24T22:47:55.650Z,16.24
2018-05-24T22:50:24.340Z,16.34
2018-05-24T22:52:53.005Z,16.23
2018-05-24T22:55:21.808Z,16.19
2018-05-24T22:57:50.961Z,16.19
2018-05-24T23:00:19.629Z,16.22
2018-05-24T23:02:48.477Z,16.30
2018-05-24T23:05:17.372Z,16.25
2018-05-24T23:07:46.053Z,16.28
2018-05-24T23:10:14.767Z,16.27
2018-05-24T23:12:43.526Z,16.14
2018-05-24T23:15:12.209Z,16.18
2018-05-24T23:17:40.993Z,16.15
2018-05-24T23:20:09.689Z,16.17
2018-05-24T23:22:38.529Z,15.93
2018-05-24T23:25:07.361Z,15.85
2018-05-24T23:27:35.944Z,15.78
2018-05-24T23:30:04.747Z,15.77
2018-05-24T23:32:33.351Z,15.67
2018-05-24T23:35:02.033Z,15.60
2018-05-24T23:37:30.786Z,15.61
2018-05-24T23:39:59.419Z,15.64
2018-05-24T23:42:28.166Z,15.68
2018-05-24T23:44:57.052Z,15.63
2018-05-24T23:47:25.831Z,15.67
2018-05-24T23:49:54.640Z,15.75
2018-05-24T23:52:23.406Z,15.83
2018-05-24T23:54:57.418Z,15.70
2018-05-24T23:57:26.211Z,15.78
2018-05-24T23:59:55.107Z,15.86
